»·PEaware :: N851TX KCGZ-MMLT

N851TX :: KCGZ-MMLT

FLIGHT INFORMATION

Flight Status: Arrived
Operator: Privately registered:
United States
More flights under this callsign
Pilot: Andrew J. (13363)
Aircraft: SOCATA TBM-900
(TBM9)
More flights by this aircraft type
Origin: KCGZ Casa Grande Mun
United States
Destination: MMLT Loreto Intl
Mexico
More flights between these airports :: More routes between these airports
Route: TOTEC J11 TUS J92 GYM LTO
File this flight plan on PilotEdge
Remarks:
Altitude:
(Current/Filed)
31,000ft
Speed:
(Current/Filed)
305kts
Departed: 13-Jun-18 04:41 PM
Arrived: 13-Jun-18 06:27 PM
Distance/Time
Traveled:
418nm/1:46
Distance/Time
To Go:
Arrived

Flight Plot

Page will automatically refresh every two minutes.

Flight plan parsing failed; only flown route is shown


Map Options




Map Legend


Flown Route
Filed Route
Departure Airport
Arrival Airport
Navaid (VOR, NDB)
Fix

Horizontal Profiles

Position Reports

Time Latitude Longitude Heading Altitude Ground
Speed
13-Jun-18 16:33 32.955733 -111.760968 327 1456ft 0kts
13-Jun-18 16:34 32.955733 -111.760968 327 1456ft 0kts
13-Jun-18 16:35 32.955733 -111.760968 327 1456ft 0kts
13-Jun-18 16:36 32.955733 -111.760968 327 1456ft 0kts
13-Jun-18 16:37 32.955733 -111.760968 327 1456ft 0kts
13-Jun-18 16:38 32.955733 -111.760968 327 1456ft 0kts
13-Jun-18 16:39 32.956565 -111.760406 334 1458ft 15kts
13-Jun-18 16:40 32.957481 -111.759571 63 1459ft 1kts
13-Jun-18 16:41 32.957302 -111.761868 242 1460ft 61kts
13-Jun-18 16:42 32.932176 -111.788161 161 2256ft 168kts
13-Jun-18 16:43 32.910093 -111.739316 110 4055ft 173kts
13-Jun-18 16:44 32.880985 -111.695230 141 5669ft 176kts
13-Jun-18 16:45 32.842992 -111.658086 142 7194ft 180kts
13-Jun-18 16:46 32.804508 -111.619970 141 9162ft 179kts
13-Jun-18 16:47 32.767721 -111.583000 142 11222ft 171kts
13-Jun-18 16:48 32.732366 -111.547569 141 13115ft 166kts
13-Jun-18 16:49 32.696342 -111.511461 142 14935ft 173kts
13-Jun-18 16:50 32.659220 -111.474310 142 16720ft 179kts
13-Jun-18 16:51 32.619578 -111.434687 142 18293ft 193kts
13-Jun-18 16:52 32.578325 -111.393493 142 19977ft 198kts
13-Jun-18 16:53 32.538443 -111.353721 141 21499ft 204kts
13-Jun-18 16:54 32.495076 -111.310525 142 23002ft 209kts
13-Jun-18 16:55 32.450039 -111.265722 142 24542ft 214kts
13-Jun-18 16:56 32.404047 -111.220030 142 26011ft 219kts
13-Jun-18 16:57 32.356932 -111.173293 142 27332ft 225kts
13-Jun-18 16:58 32.308502 -111.125338 142 28580ft 230kts
13-Jun-18 16:59 32.259196 -111.076549 142 29725ft 234kts
13-Jun-18 17:00 32.208951 -111.026907 143 30743ft 239kts
13-Jun-18 17:01 32.155640 -110.974382 143 31075ft 267kts
13-Jun-18 17:02 32.093980 -110.922800 166 31064ft 275kts
13-Jun-18 17:03 32.017762 -110.918759 184 31062ft 277kts
13-Jun-18 17:04 31.940261 -110.922055 184 31060ft 281kts
13-Jun-18 17:05 31.862719 -110.925625 184 31062ft 283kts
13-Jun-18 17:06 31.784213 -110.929243 184 31073ft 283kts
13-Jun-18 17:07 31.705978 -110.932843 184 31142ft 283kts
13-Jun-18 17:08 31.627496 -110.936450 184 31142ft 284kts
13-Jun-18 17:09 31.548611 -110.940069 184 31141ft 284kts
13-Jun-18 17:10 31.469637 -110.943689 184 31050ft 288kts
13-Jun-18 17:11 31.389422 -110.947353 184 30966ft 288kts
13-Jun-18 17:12 31.309952 -110.951020 184 30966ft 286kts
13-Jun-18 17:13 31.230538 -110.954767 184 30966ft 286kts
13-Jun-18 17:14 31.151501 -110.958491 184 30966ft 285kts
13-Jun-18 17:15 31.072383 -110.962214 184 30966ft 285kts
13-Jun-18 17:16 30.993190 -110.965933 184 30966ft 285kts
13-Jun-18 17:17 30.914365 -110.969630 184 30966ft 285kts
13-Jun-18 17:18 30.836260 -110.973287 184 30968ft 285kts
13-Jun-18 17:19 30.757130 -110.976986 184 30968ft 285kts
13-Jun-18 17:20 30.677890 -110.980684 184 30967ft 285kts
13-Jun-18 17:21 30.598720 -110.984373 184 30967ft 285kts
13-Jun-18 17:22 30.519739 -110.988047 184 30967ft 285kts
13-Jun-18 17:23 30.440432 -110.991665 184 30967ft 285kts
13-Jun-18 17:24 30.361345 -110.995256 184 30968ft 286kts
13-Jun-18 17:25 30.281786 -110.998862 184 30967ft 288kts
13-Jun-18 17:26 30.201746 -111.002484 184 30966ft 289kts
13-Jun-18 17:27 30.121089 -111.006130 184 30786ft 293kts
13-Jun-18 17:28 30.040028 -111.009785 184 30775ft 291kts
13-Jun-18 17:29 29.959519 -111.013418 184 30776ft 289kts
13-Jun-18 17:30 29.880122 -111.016981 184 30779ft 288kts
13-Jun-18 17:31 29.799935 -111.020581 184 30779ft 288kts
13-Jun-18 17:32 29.719886 -111.024168 184 30778ft 288kts
13-Jun-18 17:33 29.639854 -111.027748 184 30778ft 288kts
13-Jun-18 17:34 29.559992 -111.031325 184 30778ft 288kts
13-Jun-18 17:35 29.479938 -111.034917 184 30778ft 288kts
13-Jun-18 17:36 29.399928 -111.038504 184 30777ft 288kts
13-Jun-18 17:37 29.319631 -111.042092 184 30777ft 288kts
13-Jun-18 17:38 29.239760 -111.045659 184 30777ft 288kts
13-Jun-18 17:39 29.159842 -111.049222 184 30777ft 288kts
13-Jun-18 17:40 29.079786 -111.050079 178 30780ft 290kts
13-Jun-18 17:41 28.999586 -111.041456 177 30776ft 290kts
13-Jun-18 17:42 28.919563 -111.032622 177 30776ft 290kts
13-Jun-18 17:43 28.840207 -111.023853 177 30779ft 290kts
13-Jun-18 17:44 28.760056 -111.015038 177 30779ft 291kts
13-Jun-18 17:45 28.679733 -111.006148 177 30778ft 291kts
13-Jun-18 17:46 28.599355 -110.997252 177 30778ft 291kts
13-Jun-18 17:47 28.519052 -110.988378 177 30778ft 291kts
13-Jun-18 17:48 28.438640 -110.979506 177 30778ft 291kts
13-Jun-18 17:49 28.358583 -110.970685 177 30827ft 289kts
13-Jun-18 17:50 28.278633 -110.961933 177 30832ft 290kts
13-Jun-18 17:51 28.198566 -110.953219 177 30831ft 290kts
13-Jun-18 17:52 28.118071 -110.944458 177 30831ft 291kts
13-Jun-18 17:53 28.037937 -110.935756 177 30831ft 291kts
13-Jun-18 17:54 27.957675 -110.930068 192 30826ft 287kts
13-Jun-18 17:55 27.893000 -110.943622 193 30832ft 287kts
13-Jun-18 17:56 27.814752 -110.960486 193 30833ft 287kts
13-Jun-18 17:57 27.736218 -110.977413 193 30833ft 287kts
13-Jun-18 17:58 27.658088 -110.994228 193 30832ft 287kts
13-Jun-18 17:59 27.579623 -111.011094 193 30832ft 287kts
13-Jun-18 18:00 27.501096 -111.027944 193 30832ft 287kts
13-Jun-18 18:01 27.409842 -111.047497 193 30831ft 287kts
13-Jun-18 18:02 27.332017 -111.064146 193 30831ft 287kts
13-Jun-18 18:03 27.253002 -111.081046 193 30831ft 287kts
13-Jun-18 18:04 27.187528 -111.095015 193 30831ft 287kts
13-Jun-18 18:05 27.109266 -111.111689 193 30830ft 287kts
13-Jun-18 18:06 27.031048 -111.128324 193 30830ft 287kts
13-Jun-18 18:07 26.952674 -111.144983 193 30827ft 282kts
13-Jun-18 18:08 26.876334 -111.161211 192 28945ft 287kts
13-Jun-18 18:09 26.799253 -111.177540 191 27374ft 278kts
13-Jun-18 18:10 26.724365 -111.193380 190 25797ft 274kts
13-Jun-18 18:11 26.648000 -111.209509 189 23626ft 286kts
13-Jun-18 18:12 26.570130 -111.225948 188 21445ft 285kts
13-Jun-18 18:13 26.492599 -111.242334 187 19259ft 285kts
13-Jun-18 18:14 26.415048 -111.258606 187 16967ft 285kts
13-Jun-18 18:15 26.338119 -111.274756 187 14293ft 282kts
13-Jun-18 18:16 26.262140 -111.290693 187 11307ft 275kts
13-Jun-18 18:17 26.189280 -111.305930 189 8332ft 262kts
13-Jun-18 18:18 26.120062 -111.320444 189 5769ft 250kts
13-Jun-18 18:19 26.057103 -111.333595 189 4793ft 211kts
13-Jun-18 18:20 25.999027 -111.345723 189 4807ft 215kts
13-Jun-18 18:21 25.947706 -111.320694 142 4782ft 212kts
13-Jun-18 18:22 25.899959 -111.279081 141 4317ft 225kts
13-Jun-18 18:23 25.857028 -111.300875 280 3280ft 243kts
13-Jun-18 18:24 25.911247 -111.328192 343 1976ft 213kts
13-Jun-18 18:25 25.956347 -111.343317 349 835ft 145kts
13-Jun-18 18:26 25.986591 -111.347842 353 16ft 78kts
13-Jun-18 18:27 25.991497 -111.349838 264 19ft 10kts
13-Jun-18 18:28 25.990418 -111.351485 265 20ft 5kts
13-Jun-18 18:29 25.990673 -111.351737 353 21ft 0kts
13-Jun-18 18:30 25.990673 -111.351737 353 21ft 0kts
13-Jun-18 18:31 25.990673 -111.351737 353 21ft 0kts
13-Jun-18 18:32 25.990673 -111.351737 353 21ft 0kts
13-Jun-18 18:33 25.990673 -111.351737 353 21ft 0kts
13-Jun-18 18:34 25.990673 -111.351737 353 21ft 0kts
13-Jun-18 18:35 25.990673 -111.351737 353 21ft 0kts
13-Jun-18 18:36 25.990673 -111.351737 353 21ft 0kts

Navigation Log

Ident Type
Flight plan parsing failed, navigation log unavailable